CSDDJ KAMA-KTDW
Flight info
| Callsign | CSDDJ |
|---|---|
| Flight time | N/A |
| Altitude | 2500 |
| Route | FOLLOW I40 ROAD TO WESTBOUND |
| Aircraft | C152/L-SDFY/C |
Departure
| Time | N/A |
|---|---|
| Airport | Rick Husband Amarillo International Airport (KAMA) |
Arrival
| Time | 2026-04-26 23:13 |
|---|---|
| Airport | Tradewind Airport (KTDW) |
| Time | Latitude | Longitude | Altitude | Speed | Heading |
|---|---|---|---|---|---|
| 2026-04-26 23:13 | 35.22119 | -101.70256 | 3615 ft | 0 kts | 160° |
| 2026-04-26 23:16 | 35.22118 | -101.70255 | 3615 ft | 0 kts | 161° |
| 2026-04-26 23:16 | 35.22124 | -101.70269 | 3615 ft | 5 kts | 325° |
| 2026-04-26 23:17 | 35.22162 | -101.70300 | 3615 ft | 9 kts | 324° |
| 2026-04-26 23:17 | 35.22223 | -101.70354 | 3616 ft | 13 kts | 321° |
| 2026-04-26 23:17 | 35.22295 | -101.70407 | 3614 ft | 9 kts | 317° |
| 2026-04-26 23:17 | 35.22330 | -101.70445 | 3612 ft | 8 kts | 311° |
| 2026-04-26 23:18 | 35.22384 | -101.70509 | 3612 ft | 13 kts | 315° |
| 2026-04-26 23:18 | 35.22458 | -101.70596 | 3614 ft | 15 kts | 316° |
| 2026-04-26 23:18 | 35.22478 | -101.70619 | 3614 ft | 0 kts | 316° |
| 2026-04-26 23:19 | 35.22479 | -101.70620 | 3614 ft | 2 kts | 315° |
| 2026-04-26 23:20 | 35.22520 | -101.70669 | 3614 ft | 15 kts | 309° |
| 2026-04-26 23:20 | 35.22488 | -101.70781 | 3616 ft | 17 kts | 226° |
| 2026-04-26 23:20 | 35.22417 | -101.70869 | 3616 ft | 0 kts | 224° |
| 2026-04-26 23:21 | 35.22415 | -101.70872 | 3616 ft | 3 kts | 224° |
| 2026-04-26 23:21 | 35.22372 | -101.70927 | 3614 ft | 15 kts | 222° |
| 2026-04-26 23:21 | 35.22279 | -101.71043 | 3613 ft | 23 kts | 226° |
| 2026-04-26 23:22 | 35.22160 | -101.71195 | 3610 ft | 26 kts | 226° |
| 2026-04-26 23:22 | 35.22061 | -101.71297 | 3612 ft | 10 kts | 187° |
| 2026-04-26 23:22 | 35.21993 | -101.71242 | 3612 ft | 17 kts | 137° |
| 2026-04-26 23:22 | 35.21879 | -101.71107 | 3610 ft | 29 kts | 136° |
| 2026-04-26 23:23 | 35.21775 | -101.70959 | 3614 ft | 16 kts | 114° |
| 2026-04-26 23:23 | 35.21712 | -101.70854 | 3614 ft | 7 kts | 166° |
| 2026-04-26 23:23 | 35.21694 | -101.70858 | 3614 ft | 0 kts | 229° |